Time,TemperatureF,DewpointF,PressureIn,WindDirection,WindDirectionDegrees,WindSpeedMPH,WindSpeedGustMPH,Humidity,HourlyPrecipIn,Conditions,Clouds,dailyrainin,SoftwareType,DateUTC
2013-04-18 00:13:00,40.7,36.0,30.30,ESE,105,0.0,0.0,82,0.00,,,0.00,weatherlink.com 1.10,2013-04-18 04:13:00,
2013-04-18 00:28:00,40.3,36.0,30.30,ESE,105,0.0,0.0,83,0.00,,,0.00,weatherlink.com 1.10,2013-04-18 04:28:00,
2013-04-18 00:43:00,40.2,35.0,30.31,ESE,112,0.0,1.0,82,0.00,,,0.00,weatherlink.com 1.10,2013-04-18 04:43:00,
2013-04-18 00:58:00,40.0,35.0,30.31,ESE,111,0.0,0.0,83,0.00,,,0.00,weatherlink.com 1.10,2013-04-18 04:58:00,
2013-04-18 01:13:00,39.7,35.0,30.30,ESE,112,0.0,0.0,84,0.00,,,0.00,weatherlink.com 1.10,2013-04-18 05:13:00,
2013-04-18 01:28:00,39.1,35.0,30.31,ESE,112,0.0,0.0,85,0.00,,,0.00,weatherlink.com 1.10,2013-04-18 05:28:00,
2013-04-18 01:43:00,38.8,35.0,30.30,ESE,112,0.0,0.0,86,0.00,,,0.00,weatherlink.com 1.10,2013-04-18 05:43:00,
2013-04-18 01:58:00,38.7,35.0,30.29,ESE,112,0.0,0.0,87,0.00,,,0.00,weatherlink.com 1.10,2013-04-18 05:58:00,
2013-04-18 02:13:00,38.5,35.0,30.30,ESE,112,0.0,0.0,87,0.00,,,0.00,weatherlink.com 1.10,2013-04-18 06:13:00,
2013-04-18 02:28:00,38.3,35.0,30.31,ESE,112,0.0,0.0,88,0.00,,,0.00,weatherlink.com 1.10,2013-04-18 06:28:00,
2013-04-18 02:43:00,38.3,35.0,30.32,ESE,112,0.0,0.0,88,0.00,,,0.00,weatherlink.com 1.10,2013-04-18 06:43:00,
2013-04-18 02:58:00,37.9,35.0,30.31,ESE,111,0.0,0.0,88,0.00,,,0.00,weatherlink.com 1.10,2013-04-18 06:58:00,
2013-04-18 03:13:00,37.2,34.0,30.31,ESE,111,0.0,0.0,88,0.00,,,0.00,weatherlink.com 1.10,2013-04-18 07:13:00,
2013-04-18 03:28:00,36.6,34.0,30.32,ESE,112,0.0,0.0,89,0.00,,,0.00,weatherlink.com 1.10,2013-04-18 07:28:00,
2013-04-18 03:43:00,36.6,34.0,30.31,ESE,112,0.0,0.0,90,0.00,,,0.00,weatherlink.com 1.10,2013-04-18 07:43:00,
2013-04-18 03:58:00,36.2,34.0,30.32,ESE,112,0.0,0.0,90,0.00,,,0.00,weatherlink.com 1.10,2013-04-18 07:58:00,
2013-04-18 04:13:00,36.0,34.0,30.32,ESE,111,0.0,0.0,91,0.00,,,0.00,weatherlink.com 1.10,2013-04-18 08:13:00,
2013-04-18 04:28:00,36.0,34.0,30.31,ESE,111,0.0,0.0,92,0.00,,,0.00,weatherlink.com 1.10,2013-04-18 08:28:00,
2013-04-18 04:43:00,35.7,33.0,30.32,ESE,111,0.0,0.0,91,0.00,,,0.00,weatherlink.com 1.10,2013-04-18 08:43:00,
2013-04-18 04:58:00,35.5,33.0,30.32,ESE,111,0.0,0.0,91,0.00,,,0.00,weatherlink.com 1.10,2013-04-18 08:58:00,
2013-04-18 05:13:00,35.4,33.0,30.32,ESE,111,0.0,0.0,92,0.00,,,0.00,weatherlink.com 1.10,2013-04-18 09:13:00,
2013-04-18 05:28:00,35.5,33.0,30.31,ESE,112,0.0,0.0,92,0.00,,,0.00,weatherlink.com 1.10,2013-04-18 09:28:00,
2013-04-18 05:43:00,35.2,33.0,30.32,ESE,112,0.0,0.0,92,0.00,,,0.00,weatherlink.com 1.10,2013-04-18 09:43:00,
2013-04-18 05:58:00,35.1,33.0,30.32,ESE,112,0.0,0.0,93,0.00,,,0.00,weatherlink.com 1.10,2013-04-18 09:58:00,
2013-04-18 06:13:00,34.9,33.0,30.32,ESE,112,0.0,0.0,93,0.00,,,0.00,weatherlink.com 1.10,2013-04-18 10:13:00,
2013-04-18 06:28:00,35.1,33.0,30.32,ESE,112,0.0,0.0,93,0.00,,,0.00,weatherlink.com 1.10,2013-04-18 10:28:00,
2013-04-18 06:43:00,35.2,33.0,30.34,ESE,112,0.0,0.0,93,0.00,,,0.00,weatherlink.com 1.10,2013-04-18 10:43:00,
2013-04-18 06:58:00,35.8,34.0,30.34,ESE,112,0.0,0.0,94,0.00,,,0.00,weatherlink.com 1.10,2013-04-18 10:58:00,
2013-04-18 07:13:00,36.7,35.0,30.34,ESE,112,0.0,0.0,94,0.00,,,0.00,weatherlink.com 1.10,2013-04-18 11:13:00,
2013-04-18 07:28:00,38.6,37.0,30.35,ESE,111,0.0,0.0,95,0.00,,,0.00,weatherlink.com 1.10,2013-04-18 11:28:00,
2013-04-18 07:43:00,41.2,39.0,30.34,ESE,111,0.0,0.0,90,0.00,,,0.00,weatherlink.com 1.10,2013-04-18 11:43:00,
2013-04-18 07:59:00,43.5,39.0,30.35,ESE,112,0.0,0.0,84,0.00,,,0.00,weatherlink.com 1.10,2013-04-18 11:59:00,
2013-04-18 08:14:00,45.2,39.0,30.35,ESE,112,0.0,0.0,80,0.00,,,0.00,weatherlink.com 1.10,2013-04-18 12:14:00,
2013-04-18 08:29:00,46.5,39.0,30.35,ESE,111,0.0,0.0,76,0.00,,,0.00,weatherlink.com 1.10,2013-04-18 12:29:00,
2013-04-18 08:44:00,47.6,40.0,30.34,ESE,112,0.0,0.0,75,0.00,,,0.00,weatherlink.com 1.10,2013-04-18 12:44:00,
2013-04-18 08:59:00,48.7,40.0,30.33,ESE,111,0.0,0.0,73,0.00,,,0.00,weatherlink.com 1.10,2013-04-18 12:59:00,
2013-04-18 09:14:00,50.0,42.0,30.34,ESE,111,0.0,0.0,73,0.00,,,0.00,weatherlink.com 1.10,2013-04-18 13:14:00,
2013-04-18 09:29:00,51.2,42.0,30.33,SW,217,0.0,1.0,71,0.00,,,0.00,weatherlink.com 1.10,2013-04-18 13:29:00,
2013-04-18 09:44:00,52.6,42.0,30.33,WSW,245,0.0,1.0,68,0.00,,,0.00,weatherlink.com 1.10,2013-04-18 13:44:00,
2013-04-18 09:59:00,53.1,42.0,30.33,WSW,250,2.0,2.0,67,0.00,,,0.00,weatherlink.com 1.10,2013-04-18 13:59:00,
2013-04-18 10:14:00,53.7,41.0,30.32,SSW,212,2.0,3.0,62,0.00,,,0.00,weatherlink.com 1.10,2013-04-18 14:14:00,
2013-04-18 10:29:00,54.3,41.0,30.33,WNW,298,2.0,3.0,62,0.00,,,0.00,weatherlink.com 1.10,2013-04-18 14:29:00,
2013-04-18 10:44:00,54.5,40.0,30.32,West,267,1.0,3.0,59,0.00,,,0.00,weatherlink.com 1.10,2013-04-18 14:44:00,
2013-04-18 10:59:00,55.3,41.0,30.32,SW,217,3.0,4.0,59,0.00,,,0.00,weatherlink.com 1.10,2013-04-18 14:59:00,
2013-04-18 11:14:00,56.5,41.0,30.32,WSW,245,0.0,4.0,56,0.00,,,0.00,weatherlink.com 1.10,2013-04-18 15:14:00,
2013-04-18 11:29:00,57.9,41.0,30.31,East,85,2.0,5.0,53,0.00,,,0.00,weatherlink.com 1.10,2013-04-18 15:29:00,
2013-04-18 11:44:00,59.4,41.0,30.30,NW,305,3.0,4.0,50,0.00,,,0.00,weatherlink.com 1.10,2013-04-18 15:44:00,
2013-04-18 11:59:00,60.3,40.0,30.29,WSW,256,0.0,6.0,48,0.00,,,0.00,weatherlink.com 1.10,2013-04-18 15:59:00,
2013-04-18 12:15:00,60.5,38.0,30.28,SW,229,1.0,6.0,44,0.00,,,0.00,weatherlink.com 1.10,2013-04-18 16:15:00,
2013-04-18 12:30:00,61.1,37.0,30.27,WSW,240,0.0,8.0,41,0.00,,,0.00,weatherlink.com 1.10,2013-04-18 16:30:00,
2013-04-18 12:45:00,61.6,37.0,30.27,SW,214,1.0,7.0,41,0.00,,,0.00,weatherlink.com 1.10,2013-04-18 16:45:00,
2013-04-18 13:00:00,61.6,37.0,30.27,SSW,205,0.0,4.0,41,0.00,,,0.00,weatherlink.com 1.10,2013-04-18 17:00:00,
2013-04-18 13:15:00,61.2,37.0,30.26,West,260,2.0,5.0,40,0.00,,,0.00,weatherlink.com 1.10,2013-04-18 17:15:00,
2013-04-18 13:30:00,61.6,37.0,30.25,SW,224,1.0,5.0,41,0.00,,,0.00,weatherlink.com 1.10,2013-04-18 17:30:00,
2013-04-18 13:45:00,62.3,38.0,30.25,East,100,3.0,7.0,41,0.00,,,0.00,weatherlink.com 1.10,2013-04-18 17:45:00,
2013-04-18 14:00:00,62.6,38.0,30.24,SE,127,1.0,7.0,41,0.00,,,0.00,weatherlink.com 1.10,2013-04-18 18:00:00,
2013-04-18 14:15:00,62.0,37.0,30.24,South,173,0.0,6.0,40,0.00,,,0.00,weatherlink.com 1.10,2013-04-18 18:15:00,
2013-04-18 14:30:00,61.3,37.0,30.23,WSW,239,5.0,7.0,41,0.00,,,0.00,weatherlink.com 1.10,2013-04-18 18:30:00,
2013-04-18 14:45:00,60.8,37.0,30.23,SW,214,0.0,9.0,42,0.00,,,0.00,weatherlink.com 1.10,2013-04-18 18:45:00,
2013-04-18 15:00:00,60.6,37.0,30.23,SW,224,1.0,6.0,41,0.00,,,0.00,weatherlink.com 1.10,2013-04-18 19:00:00,
2013-04-18 15:15:00,60.4,37.0,30.22,NW,318,2.0,5.0,42,0.00,,,0.00,weatherlink.com 1.10,2013-04-18 19:15:00,
2013-04-18 15:30:00,60.1,37.0,30.21,SE,142,0.0,7.0,42,0.00,,,0.00,weatherlink.com 1.10,2013-04-18 19:30:00,
2013-04-18 15:45:00,60.0,37.0,30.21,SSW,198,0.0,5.0,42,0.00,,,0.00,weatherlink.com 1.10,2013-04-18 19:45:00,
2013-04-18 16:00:00,60.0,36.0,30.20,NW,309,3.0,7.0,41,0.00,,,0.00,weatherlink.com 1.10,2013-04-18 20:00:00,
2013-04-18 16:15:00,59.8,36.0,30.20,WNW,300,0.0,10.0,41,0.00,,,0.00,weatherlink.com 1.10,2013-04-18 20:15:00,
2013-04-18 16:30:00,59.4,35.0,30.20,SE,142,0.0,4.0,40,0.00,,,0.00,weatherlink.com 1.10,2013-04-18 20:30:00,
2013-04-18 16:45:00,58.8,36.0,30.20,South,174,0.0,5.0,43,0.00,,,0.00,weatherlink.com 1.10,2013-04-18 20:45:00,
2013-04-18 17:00:00,58.3,37.0,30.20,SSW,203,1.0,5.0,45,0.00,,,0.00,weatherlink.com 1.10,2013-04-18 21:00:00,
2013-04-18 17:15:00,57.4,38.0,30.20,SW,218,1.0,3.0,48,0.00,,,0.00,weatherlink.com 1.10,2013-04-18 21:15:00,
2013-04-18 17:30:00,56.6,39.0,30.20,SW,232,0.0,5.0,53,0.00,,,0.00,weatherlink.com 1.10,2013-04-18 21:30:00,
2013-04-18 17:46:00,55.7,39.0,30.19,West,278,0.0,1.0,54,0.00,,,0.00,weatherlink.com 1.10,2013-04-18 21:46:00,
2013-04-18 18:00:00,55.7,39.0,30.19,SW,230,0.0,1.0,54,0.00,,,0.00,weatherlink.com 1.10,2013-04-18 22:00:00,
2013-04-18 18:15:00,55.6,39.0,30.19,SE,131,0.0,1.0,54,0.00,,,0.00,weatherlink.com 1.10,2013-04-18 22:15:00,
2013-04-18 18:30:00,55.8,39.0,30.18,WSW,249,0.0,3.0,54,0.00,,,0.00,weatherlink.com 1.10,2013-04-18 22:30:00,
2013-04-18 18:45:00,55.8,43.0,30.18,SW,218,1.0,7.0,62,0.00,,,0.00,weatherlink.com 1.10,2013-04-18 22:45:00,
2013-04-18 19:00:00,55.5,44.0,30.18,SE,127,0.0,3.0,66,0.00,,,0.00,weatherlink.com 1.10,2013-04-18 23:00:00,
2013-04-18 19:15:00,55.0,45.0,30.17,SSW,205,0.0,3.0,70,0.00,,,0.00,weatherlink.com 1.10,2013-04-18 23:15:00,
2013-04-18 19:30:00,54.7,46.0,30.17,WNW,287,1.0,2.0,72,0.00,,,0.00,weatherlink.com 1.10,2013-04-18 23:30:00,
2013-04-18 19:45:00,54.3,46.0,30.16,ESE,119,0.0,2.0,73,0.00,,,0.00,weatherlink.com 1.10,2013-04-18 23:45:00,
2013-04-18 20:00:00,54.1,46.0,30.16,NNW,336,0.0,1.0,75,0.00,,,0.00,weatherlink.com 1.10,2013-04-19 00:00:00,
2013-04-18 20:15:00,53.8,46.0,30.15,SW,221,0.0,1.0,76,0.00,,,0.00,weatherlink.com 1.10,2013-04-19 00:15:00,
2013-04-18 20:30:00,53.7,47.0,30.15,ESE,121,0.0,0.0,77,0.00,,,0.00,weatherlink.com 1.10,2013-04-19 00:30:00,
2013-04-18 20:45:00,53.6,47.0,30.15,East,94,0.0,1.0,78,0.00,,,0.00,weatherlink.com 1.10,2013-04-19 00:45:00,
2013-04-18 21:00:00,53.5,47.0,30.14,East,98,0.0,1.0,78,0.00,,,0.00,weatherlink.com 1.10,2013-04-19 01:00:00,
2013-04-18 21:15:00,53.4,47.0,30.14,SSE,155,0.0,1.0,79,0.00,,,0.00,weatherlink.com 1.10,2013-04-19 01:15:00,
2013-04-18 21:30:00,53.4,47.0,30.14,WNW,295,0.0,1.0,80,0.00,,,0.00,weatherlink.com 1.10,2013-04-19 01:30:00,
2013-04-18 21:45:00,53.4,47.0,30.13,ESE,113,0.0,1.0,80,0.00,,,0.00,weatherlink.com 1.10,2013-04-19 01:45:00,
2013-04-18 22:00:00,53.3,47.0,30.12,ESE,112,0.0,0.0,80,0.00,,,0.00,weatherlink.com 1.10,2013-04-19 02:00:00,
2013-04-18 22:15:00,53.3,48.0,30.12,WNW,290,0.0,0.0,81,0.00,,,0.00,weatherlink.com 1.10,2013-04-19 02:15:00,
2013-04-18 22:30:00,53.2,48.0,30.12,West,261,0.0,1.0,81,0.00,,,0.00,weatherlink.com 1.10,2013-04-19 02:30:00,
2013-04-18 22:45:00,53.3,48.0,30.11,South,184,0.0,1.0,82,0.00,,,0.00,weatherlink.com 1.10,2013-04-19 02:45:00,
2013-04-18 23:01:00,53.2,48.0,30.11,ENE,75,0.0,1.0,82,0.00,,,0.00,weatherlink.com 1.10,2013-04-19 03:01:00,
2013-04-18 23:16:00,53.2,48.0,30.10,SSW,197,0.0,2.0,83,0.00,,,0.00,weatherlink.com 1.10,2013-04-19 03:16:00,
2013-04-18 23:31:00,53.1,48.0,30.10,SW,232,1.0,1.0,84,0.00,,,0.00,weatherlink.com 1.10,2013-04-19 03:31:00,
2013-04-18 23:46:00,53.0,48.0,30.10,East,91,0.0,1.0,84,0.00,,,0.00,weatherlink.com 1.10,2013-04-19 03:46:00,